createdAt,value
2018-11-21T00:01:28.880Z,1.80
2018-11-21T00:03:57.203Z,1.80
2018-11-21T00:06:25.481Z,1.80
2018-11-21T00:08:53.758Z,1.70
2018-11-21T00:11:21.962Z,1.80
2018-11-21T00:13:50.248Z,1.70
2018-11-21T00:16:18.476Z,1.70
2018-11-21T00:18:46.737Z,1.70
2018-11-21T00:21:14.982Z,1.70
2018-11-21T00:23:43.197Z,1.60
2018-11-21T00:26:11.459Z,1.60
2018-11-21T00:28:39.714Z,1.60
2018-11-21T00:31:08.397Z,1.60
2018-11-21T00:33:36.595Z,1.60
2018-11-21T00:36:04.893Z,1.70
2018-11-21T00:38:33.148Z,1.60
2018-11-21T00:41:01.442Z,1.70
2018-11-21T00:43:29.744Z,1.60
2018-11-21T00:45:58.052Z,1.70
2018-11-21T00:48:26.270Z,1.60
2018-11-21T00:50:54.775Z,1.60
2018-11-21T00:53:23.026Z,1.60
2018-11-21T00:55:51.293Z,1.60
2018-11-21T00:58:19.546Z,1.60
2018-11-21T01:00:47.853Z,1.60
2018-11-21T01:03:16.235Z,1.60
2018-11-21T01:05:44.600Z,1.50
2018-11-21T01:08:12.846Z,1.50
2018-11-21T01:10:41.084Z,1.50
2018-11-21T01:13:10.152Z,1.60
2018-11-21T01:15:38.460Z,1.50
2018-11-21T01:18:06.666Z,1.50
2018-11-21T01:20:34.965Z,1.50
2018-11-21T01:23:03.062Z,1.40
2018-11-21T01:25:31.291Z,1.40
2018-11-21T01:27:59.577Z,1.30
2018-11-21T01:30:27.959Z,1.20
2018-11-21T01:32:56.174Z,1.20
2018-11-21T01:35:24.441Z,1.30
2018-11-21T01:37:52.682Z,1.30
2018-11-21T01:40:20.951Z,1.30
2018-11-21T01:42:49.268Z,1.20
2018-11-21T01:45:17.538Z,1.00
2018-11-21T01:47:45.829Z,1.10
2018-11-21T01:50:14.078Z,1.00
2018-11-21T01:52:42.354Z,1.00
2018-11-21T01:55:10.605Z,0.80
2018-11-21T01:57:38.822Z,0.70
2018-11-21T02:00:09.039Z,0.60
2018-11-21T02:02:37.265Z,0.70
2018-11-21T02:05:05.620Z,0.60
2018-11-21T02:07:34.096Z,0.60
2018-11-21T02:10:02.297Z,0.50
2018-11-21T02:12:30.533Z,0.40
2018-11-21T02:14:58.759Z,0.40
2018-11-21T02:17:26.994Z,0.60
2018-11-21T02:19:55.194Z,0.50
2018-11-21T02:22:23.473Z,0.30
2018-11-21T02:24:51.627Z,0.20
2018-11-21T02:27:19.873Z,0.10
2018-11-21T02:29:48.110Z,0.00
2018-11-21T02:32:16.357Z,0.10
2018-11-21T02:34:44.600Z,0.20
2018-11-21T02:37:12.809Z,0.10
2018-11-21T02:39:41.052Z,0.30
2018-11-21T02:42:09.285Z,0.20
2018-11-21T02:44:37.472Z,0.10
2018-11-21T02:47:05.811Z,0.10
2018-11-21T02:49:34.051Z,0.00
2018-11-21T02:52:02.349Z,-0.10
2018-11-21T02:54:30.604Z,-0.20
2018-11-21T02:57:18.502Z,-0.20
2018-11-21T02:59:47.147Z,-0.20
2018-11-21T03:02:15.390Z,-0.30
2018-11-21T03:04:43.648Z,-0.30
2018-11-21T03:07:11.914Z,-0.30
2018-11-21T03:09:40.126Z,-0.30
2018-11-21T03:12:08.959Z,-0.20
2018-11-21T03:14:37.191Z,-0.10
2018-11-21T03:17:05.620Z,-0.20
2018-11-21T03:19:33.842Z,-0.30
2018-11-21T03:22:02.011Z,-0.30
2018-11-21T03:24:30.203Z,-0.30
2018-11-21T03:26:58.495Z,-0.20
2018-11-21T03:29:26.752Z,-0.30
2018-11-21T03:31:54.944Z,-0.40
2018-11-21T03:34:23.169Z,-0.50
2018-11-21T03:36:52.655Z,-0.40
2018-11-21T03:39:22.187Z,-0.40
2018-11-21T03:41:50.413Z,-0.40
2018-11-21T03:44:18.590Z,-0.30
2018-11-21T03:46:47.787Z,-0.40
2018-11-21T03:49:16.500Z,-0.40
2018-11-21T03:51:44.721Z,-0.40
2018-11-21T03:54:12.922Z,-0.40
2018-11-21T03:56:41.405Z,-0.40
2018-11-21T03:59:10.122Z,-0.40
2018-11-21T04:01:38.685Z,-0.50
2018-11-21T04:04:07.311Z,-0.50
2018-11-21T04:06:35.505Z,-0.50
2018-11-21T04:09:06.601Z,-0.50
2018-11-21T04:11:34.818Z,-0.50
2018-11-21T04:14:03.094Z,-0.50
2018-11-21T04:16:31.333Z,-0.50
2018-11-21T04:18:59.653Z,-0.40
2018-11-21T04:21:27.842Z,-0.40
2018-11-21T04:23:56.055Z,-0.40
2018-11-21T04:26:24.256Z,-0.40
2018-11-21T04:28:52.531Z,-0.40
2018-11-21T04:31:20.791Z,-0.40
2018-11-21T04:33:48.955Z,-0.40
2018-11-21T04:36:17.169Z,-0.40
2018-11-21T04:38:45.460Z,-0.40
2018-11-21T04:41:13.670Z,-0.40
2018-11-21T04:43:41.893Z,-0.40
2018-11-21T04:46:10.094Z,-0.40
2018-11-21T04:48:38.293Z,-0.50
2018-11-21T04:51:06.537Z,-0.50
2018-11-21T04:53:34.730Z,-0.50
2018-11-21T04:56:02.929Z,-0.40
2018-11-21T04:58:31.142Z,-0.40
2018-11-21T05:00:59.411Z,-0.40
2018-11-21T05:03:27.634Z,-0.50
2018-11-21T05:05:55.830Z,-0.50
2018-11-21T05:08:24.069Z,-0.50
2018-11-21T05:10:52.339Z,-0.50
2018-11-21T05:13:20.559Z,-0.50
2018-11-21T05:15:48.831Z,-0.50
2018-11-21T05:18:17.145Z,-0.50
2018-11-21T05:20:45.371Z,-0.50
2018-11-21T05:23:13.625Z,-0.60
2018-11-21T05:25:41.873Z,-0.60
2018-11-21T05:28:10.043Z,-0.60
2018-11-21T05:30:38.287Z,-0.60
2018-11-21T05:33:06.497Z,-0.60
2018-11-21T05:35:34.721Z,-0.60
2018-11-21T05:38:02.935Z,-0.50
2018-11-21T05:40:31.198Z,-0.50
2018-11-21T05:42:59.404Z,-0.60
2018-11-21T05:45:27.622Z,-0.60
2018-11-21T05:47:55.855Z,-0.60
2018-11-21T05:50:24.112Z,-0.60
2018-11-21T05:52:52.392Z,-0.60
2018-11-21T05:55:20.669Z,-0.60
2018-11-21T05:57:48.878Z,-0.60
2018-11-21T06:00:17.162Z,-0.50
2018-11-21T06:02:45.405Z,-0.60
2018-11-21T06:05:13.680Z,-0.50
2018-11-21T06:07:41.857Z,-0.60
2018-11-21T06:10:11.938Z,-0.50
2018-11-21T06:12:40.767Z,-0.50
2018-11-21T06:15:09.448Z,-0.60
2018-11-21T06:17:37.890Z,-0.60
2018-11-21T06:20:08.749Z,-0.60
2018-11-21T06:22:37.007Z,-0.70
2018-11-21T06:25:06.411Z,-0.60
2018-11-21T06:27:34.621Z,-0.60
2018-11-21T06:30:03.302Z,-0.60
2018-11-21T06:32:31.579Z,-0.60
2018-11-21T06:34:59.865Z,-0.60
2018-11-21T06:37:28.120Z,-0.60
2018-11-21T06:39:56.392Z,-0.60
2018-11-21T06:42:24.629Z,-0.60
2018-11-21T06:44:52.907Z,-0.50
2018-11-21T06:47:21.082Z,-0.50
2018-11-21T06:49:49.325Z,-0.50
2018-11-21T06:52:22.117Z,-0.50
2018-11-21T06:54:45.852Z,-0.50
2018-11-21T06:57:14.143Z,-0.50
2018-11-21T06:59:42.527Z,-0.50
2018-11-21T07:02:10.805Z,-0.50
2018-11-21T07:04:39.123Z,-0.50
2018-11-21T07:07:07.371Z,-0.50
2018-11-21T07:09:35.623Z,-0.50
2018-11-21T07:12:03.923Z,-0.40
2018-11-21T07:14:32.104Z,-0.40
2018-11-21T07:17:00.356Z,-0.40
2018-11-21T07:19:28.614Z,-0.30
2018-11-21T07:21:56.846Z,-0.20
2018-11-21T07:24:26.431Z,-0.20
2018-11-21T07:26:53.496Z,-0.20
2018-11-21T07:29:21.791Z,-0.10
2018-11-21T07:31:50.017Z,-0.10
2018-11-21T07:34:18.227Z,-0.10
2018-11-21T07:36:49.014Z,-0.10
2018-11-21T07:39:17.209Z,-0.10
2018-11-21T07:41:45.465Z,0.00
2018-11-21T07:44:13.749Z,-0.10
2018-11-21T07:46:42.194Z,-0.10
2018-11-21T07:49:10.590Z,0.00
2018-11-21T07:51:38.942Z,0.00
2018-11-21T07:54:07.264Z,0.10
2018-11-21T07:57:17.445Z,0.20
2018-11-21T08:00:43.853Z,0.20
2018-11-21T08:03:12.436Z,0.30
2018-11-21T08:05:44.415Z,0.40
2018-11-21T08:08:28.430Z,0.60
2018-11-21T08:11:14.788Z,0.60
2018-11-21T08:14:01.048Z,0.70
2018-11-21T08:16:45.505Z,0.70
2018-11-21T08:19:42.024Z,0.90
2018-11-21T08:22:22.199Z,0.80
2018-11-21T08:25:15.700Z,0.80
2018-11-21T08:28:01.615Z,0.80
2018-11-21T08:30:29.867Z,0.90
2018-11-21T08:32:58.126Z,1.00
2018-11-21T08:35:26.370Z,1.10
2018-11-21T08:37:54.656Z,1.30
2018-11-21T08:40:22.896Z,1.50
2018-11-21T08:42:51.138Z,1.70
2018-11-21T08:45:19.411Z,1.70
2018-11-21T08:47:47.646Z,1.80
2018-11-21T08:50:15.924Z,1.80
2018-11-21T08:52:44.249Z,1.60
2018-11-21T08:55:13.116Z,1.40
2018-11-21T08:57:41.379Z,1.40
2018-11-21T09:00:11.525Z,1.20
2018-11-21T09:02:39.774Z,1.20
2018-11-21T09:05:09.673Z,1.20
2018-11-21T09:07:38.667Z,1.00
2018-11-21T09:10:09.354Z,1.00
2018-11-21T09:12:37.599Z,1.00
2018-11-21T09:15:12.007Z,1.00
2018-11-21T09:17:40.621Z,1.00
2018-11-21T09:20:09.692Z,1.00
2018-11-21T09:22:38.052Z,1.00
2018-11-21T09:25:07.600Z,1.00
2018-11-21T09:27:36.263Z,1.00
2018-11-21T09:30:08.946Z,1.10
2018-11-21T09:32:37.221Z,1.10
2018-11-21T09:35:07.727Z,1.10
2018-11-21T09:37:35.949Z,1.10
2018-11-21T09:40:06.227Z,1.10
2018-11-21T09:42:34.492Z,1.10
2018-11-21T09:45:02.682Z,1.20
2018-11-21T09:47:30.992Z,1.10
2018-11-21T09:49:59.160Z,1.10
2018-11-21T09:52:27.404Z,1.20
2018-11-21T09:54:55.668Z,1.10
2018-11-21T09:57:23.899Z,1.20
2018-11-21T09:59:52.126Z,1.20
2018-11-21T10:02:57.040Z,1.30
2018-11-21T10:05:25.309Z,1.30
2018-11-21T10:08:23.145Z,1.20
2018-11-21T10:10:51.384Z,1.20
2018-11-21T10:13:19.611Z,1.20
2018-11-21T10:15:47.836Z,1.20
2018-11-21T10:18:23.276Z,1.20
2018-11-21T10:20:49.770Z,1.10
2018-11-21T10:23:18.048Z,1.10
2018-11-21T10:25:46.338Z,1.10
2018-11-21T10:28:14.952Z,1.20
2018-11-21T10:30:43.157Z,1.20
2018-11-21T10:33:11.645Z,1.20
2018-11-21T10:35:39.868Z,1.20
2018-11-21T10:38:08.115Z,1.20
2018-11-21T10:40:36.344Z,1.20
2018-11-21T10:43:04.902Z,1.30
2018-11-21T10:45:33.125Z,1.40
2018-11-21T10:48:01.357Z,1.30
2018-11-21T10:50:29.862Z,1.40
2018-11-21T10:52:58.094Z,1.30
2018-11-21T10:55:26.345Z,1.40
2018-11-21T10:57:54.677Z,1.40
2018-11-21T11:00:41.051Z,1.50
2018-11-21T11:03:11.616Z,1.50
2018-11-21T11:06:02.293Z,1.50
2018-11-21T11:08:48.440Z,1.50
2018-11-21T11:11:28.254Z,1.50
2018-11-21T11:14:07.919Z,1.60
2018-11-21T11:16:53.335Z,1.50
2018-11-21T11:19:38.354Z,1.60
2018-11-21T11:22:24.364Z,1.60
2018-11-21T11:25:14.440Z,1.70
2018-11-21T11:27:55.754Z,1.70
2018-11-21T11:36:44.701Z,1.60
2018-11-21T11:39:30.512Z,1.70
2018-11-21T11:42:17.925Z,1.70
2018-11-21T11:45:04.121Z,1.70
2018-11-21T11:47:56.657Z,1.80
2018-11-21T11:50:53.036Z,1.80
2018-11-21T11:53:29.886Z,1.90
2018-11-21T11:56:10.714Z,1.90
2018-11-21T11:58:50.588Z,2.00
2018-11-21T12:01:27.974Z,2.00
2018-11-21T12:04:08.114Z,2.00
2018-11-21T12:07:04.361Z,1.90
2018-11-21T12:10:06.928Z,1.80
2018-11-21T12:12:53.087Z,1.80
2018-11-21T12:15:43.248Z,1.80
2018-11-21T12:18:33.428Z,1.80
2018-11-21T12:21:19.201Z,1.80
2018-11-21T12:24:09.583Z,1.80
2018-11-21T12:26:59.738Z,1.80
2018-11-21T12:29:45.562Z,1.70
2018-11-21T12:32:39.326Z,1.80
2018-11-21T12:35:42.527Z,1.80
2018-11-21T12:38:20.020Z,1.90
2018-11-21T12:41:13.181Z,1.80
2018-11-21T12:44:06.275Z,1.80
2018-11-21T12:46:56.463Z,1.80
2018-11-21T12:49:42.675Z,1.90
2018-11-21T12:52:28.674Z,1.90
2018-11-21T12:55:14.550Z,1.90
2018-11-21T12:57:56.622Z,1.80
2018-11-21T13:00:55.822Z,1.80
2018-11-21T13:03:37.516Z,1.80
2018-11-21T13:06:23.863Z,1.80
2018-11-21T13:09:10.128Z,1.90
2018-11-21T13:11:46.711Z,1.80
2018-11-21T13:14:32.822Z,1.80
2018-11-21T13:17:28.007Z,1.90
2018-11-21T13:20:14.008Z,1.80
2018-11-21T13:22:54.557Z,1.90
2018-11-21T13:25:42.947Z,1.90
2018-11-21T13:28:29.607Z,1.90
2018-11-21T13:31:17.071Z,1.90
2018-11-21T13:34:03.266Z,1.90
2018-11-21T13:36:42.464Z,1.90
2018-11-21T13:39:36.427Z,1.90
2018-11-21T13:42:21.823Z,1.90
2018-11-21T13:45:07.948Z,2.00
2018-11-21T13:47:48.157Z,1.90
2018-11-21T13:50:35.547Z,1.90
2018-11-21T13:53:28.752Z,1.90
2018-11-21T13:55:56.977Z,1.90
2018-11-21T13:58:25.190Z,2.10
2018-11-21T14:00:53.380Z,2.10
2018-11-21T14:03:21.623Z,2.20
2018-11-21T14:05:49.818Z,2.20
2018-11-21T14:08:18.047Z,2.10
2018-11-21T14:10:46.401Z,2.00
2018-11-21T14:13:14.653Z,2.00
2018-11-21T14:15:42.884Z,1.90
2018-11-21T14:18:11.221Z,1.90
2018-11-21T14:20:39.560Z,1.90
2018-11-21T14:23:07.765Z,1.90
2018-11-21T14:25:36.122Z,1.90
2018-11-21T14:28:04.523Z,1.90
2018-11-21T14:30:32.796Z,1.90
2018-11-21T14:33:04.867Z,1.90
2018-11-21T14:35:33.070Z,1.90
2018-11-21T14:38:01.277Z,1.90
2018-11-21T14:40:29.521Z,1.90
2018-11-21T14:42:58.544Z,1.90
2018-11-21T14:45:28.116Z,1.80
2018-11-21T14:47:56.351Z,1.90
2018-11-21T14:50:33.023Z,1.80
2018-11-21T14:53:01.314Z,1.80
2018-11-21T14:55:29.595Z,1.90
2018-11-21T14:57:57.861Z,1.90
2018-11-21T15:00:26.135Z,1.90
2018-11-21T15:02:54.342Z,1.90
2018-11-21T15:05:22.537Z,1.90
2018-11-21T15:07:50.808Z,2.00
2018-11-21T15:10:19.003Z,2.00
2018-11-21T15:12:50.229Z,1.90
2018-11-21T15:15:19.701Z,2.00
2018-11-21T15:17:47.879Z,1.90
2018-11-21T15:20:20.650Z,2.00
2018-11-21T15:22:49.743Z,2.00
2018-11-21T15:25:19.641Z,1.90
2018-11-21T15:27:47.976Z,2.00
2018-11-21T15:30:19.162Z,1.90
2018-11-21T15:32:47.427Z,2.00
2018-11-21T15:35:15.636Z,1.90
2018-11-21T15:37:44.163Z,1.90
2018-11-21T15:40:15.695Z,1.90
2018-11-21T15:45:16.727Z,1.80
2018-11-21T15:47:47.189Z,1.90
2018-11-21T15:50:16.352Z,1.80
2018-11-21T15:52:45.522Z,1.80
2018-11-21T15:55:14.729Z,1.80
2018-11-21T15:57:45.188Z,1.70
2018-11-21T16:00:27.805Z,1.70
2018-11-21T16:03:01.066Z,1.80
2018-11-21T16:05:29.548Z,1.70
2018-11-21T16:08:03.291Z,1.70
2018-11-21T16:10:33.736Z,1.80
2018-11-21T16:13:02.465Z,1.80
2018-11-21T16:15:35.682Z,1.70
2018-11-21T16:17:59.823Z,1.80
2018-11-21T16:20:28.031Z,1.80
2018-11-21T16:22:56.407Z,1.80
2018-11-21T16:25:24.867Z,1.80
2018-11-21T16:27:53.271Z,1.70
2018-11-21T16:30:23.187Z,1.80
2018-11-21T16:32:51.455Z,1.80
2018-11-21T16:35:19.919Z,1.70
2018-11-21T16:37:48.223Z,1.80
2018-11-21T16:40:21.214Z,1.80
2018-11-21T16:42:49.794Z,1.80
2018-11-21T16:45:20.024Z,1.80
2018-11-21T16:47:48.314Z,1.80
2018-11-21T16:50:18.050Z,1.80
2018-11-21T16:52:46.336Z,1.80
2018-11-21T16:55:16.430Z,1.80
2018-11-21T16:57:45.279Z,1.80
2018-11-21T17:00:16.275Z,1.80
2018-11-21T17:02:44.613Z,1.80
2018-11-21T17:05:14.106Z,1.80
2018-11-21T17:07:42.602Z,1.80
2018-11-21T17:10:12.633Z,1.80
2018-11-21T17:12:41.222Z,1.80
2018-11-21T17:15:11.462Z,1.90
2018-11-21T17:17:39.670Z,1.80
2018-11-21T17:20:16.616Z,1.90
2018-11-21T17:22:45.648Z,1.90
2018-11-21T17:25:15.266Z,2.00
2018-11-21T17:27:44.044Z,1.90
2018-11-21T17:30:14.144Z,1.90
2018-11-21T17:32:42.282Z,1.90
2018-11-21T17:35:12.075Z,2.00
2018-11-21T17:37:40.336Z,1.90
2018-11-21T17:40:20.034Z,2.00
2018-11-21T17:42:48.437Z,2.00
2018-11-21T17:45:17.580Z,1.90
2018-11-21T17:47:47.668Z,1.90
2018-11-21T17:50:17.319Z,1.90
2018-11-21T17:52:45.963Z,2.00
2018-11-21T17:55:19.007Z,2.00
2018-11-21T17:57:47.241Z,1.90
2018-11-21T18:00:25.496Z,2.00
2018-11-21T18:02:53.742Z,2.00
2018-11-21T18:05:23.784Z,2.00
2018-11-21T18:07:52.105Z,2.00
2018-11-21T18:10:22.410Z,2.00
2018-11-21T18:12:50.661Z,2.00
2018-11-21T18:15:19.556Z,2.00
2018-11-21T18:17:48.585Z,1.90
2018-11-21T18:20:17.397Z,1.90
2018-11-21T18:22:46.403Z,1.90
2018-11-21T18:25:25.852Z,1.80
2018-11-21T18:27:54.053Z,1.90
2018-11-21T18:30:23.490Z,1.80
2018-11-21T18:32:51.705Z,1.80
2018-11-21T18:35:21.328Z,1.80
2018-11-21T18:37:49.572Z,1.80
2018-11-21T18:40:19.365Z,1.90
2018-11-21T18:42:50.439Z,1.90
2018-11-21T18:45:21.273Z,1.80
2018-11-21T18:47:49.848Z,1.80
2018-11-21T18:50:18.919Z,1.80
2018-11-21T18:52:47.833Z,1.80
2018-11-21T18:55:18.643Z,1.80
2018-11-21T18:58:47.025Z,1.80
2018-11-21T19:01:15.248Z,1.90
2018-11-21T19:03:43.470Z,2.00
2018-11-21T19:06:11.653Z,1.90
2018-11-21T19:08:39.888Z,2.00
2018-11-21T19:11:08.097Z,1.90
2018-11-21T19:13:36.343Z,1.90
2018-11-21T19:16:04.612Z,1.80
2018-11-21T19:18:32.789Z,1.80
2018-11-21T19:21:01.295Z,1.80
2018-11-21T19:23:29.514Z,1.80
2018-11-21T19:25:57.720Z,1.90
2018-11-21T19:28:25.931Z,1.90
2018-11-21T19:30:54.139Z,1.90
2018-11-21T19:33:22.398Z,1.90
2018-11-21T19:35:50.640Z,1.90
2018-11-21T19:38:20.061Z,1.90
2018-11-21T19:40:47.169Z,1.90
2018-11-21T19:43:15.589Z,2.00
2018-11-21T19:45:43.773Z,1.90
2018-11-21T19:48:12.053Z,1.80
2018-11-21T19:50:40.630Z,1.90
2018-11-21T19:53:08.862Z,1.80
2018-11-21T19:55:37.621Z,1.80
2018-11-21T19:58:06.076Z,1.80
2018-11-21T20:00:35.586Z,1.80
2018-11-21T20:03:03.978Z,1.80
2018-11-21T20:05:32.195Z,1.90
2018-11-21T20:08:00.407Z,1.80
2018-11-21T20:10:28.625Z,1.80
2018-11-21T20:12:56.846Z,1.80
2018-11-21T20:15:26.377Z,1.80
2018-11-21T20:17:56.423Z,1.80
2018-11-21T20:20:24.958Z,1.80
2018-11-21T20:22:53.400Z,1.80
2018-11-21T20:25:22.643Z,1.80
2018-11-21T20:27:50.857Z,1.80
2018-11-21T20:30:26.762Z,1.80
2018-11-21T20:32:55.191Z,1.80
2018-11-21T20:35:23.385Z,2.00
2018-11-21T20:37:51.588Z,1.90
2018-11-21T20:40:30.759Z,1.90
2018-11-21T20:42:58.967Z,1.90
2018-11-21T20:45:28.145Z,1.80
2018-11-21T20:47:57.151Z,1.90
2018-11-21T20:50:25.363Z,1.80
2018-11-21T20:52:53.629Z,1.80
2018-11-21T20:55:23.363Z,1.80
2018-11-21T20:57:51.617Z,1.90
2018-11-21T21:00:21.529Z,1.90
2018-11-21T21:02:49.915Z,1.90
2018-11-21T21:05:19.644Z,1.80
2018-11-21T21:07:48.068Z,1.80
2018-11-21T21:10:20.546Z,1.80
2018-11-21T21:12:48.893Z,1.80
2018-11-21T21:15:17.204Z,1.80
2018-11-21T21:17:46.452Z,1.80
2018-11-21T21:20:15.889Z,2.40
2018-11-21T21:22:44.641Z,2.10
2018-11-21T21:25:14.405Z,2.10
2018-11-21T21:27:42.617Z,2.20
2018-11-21T21:30:13.207Z,2.40
2018-11-21T21:32:41.654Z,2.20
2018-11-21T21:35:10.974Z,2.80
2018-11-21T21:37:39.197Z,2.80
2018-11-21T21:40:09.800Z,3.00
2018-11-21T21:42:38.624Z,2.60
2018-11-21T21:45:08.690Z,2.40
2018-11-21T21:47:41.615Z,2.30
2018-11-21T21:50:07.201Z,2.10
2018-11-21T21:52:35.500Z,2.00
2018-11-21T21:55:03.855Z,2.00
2018-11-21T21:57:32.055Z,2.10
2018-11-21T22:00:01.774Z,2.20
2018-11-21T22:02:30.015Z,2.10
2018-11-21T22:04:58.229Z,2.10
2018-11-21T22:07:26.401Z,2.00
2018-11-21T22:09:54.711Z,2.00
2018-11-21T22:12:22.915Z,1.90
2018-11-21T22:14:51.193Z,2.10
2018-11-21T22:17:19.388Z,2.10
2018-11-21T22:19:47.625Z,2.10
2018-11-21T22:22:15.848Z,2.10
2018-11-21T22:24:44.078Z,2.10
2018-11-21T22:27:12.287Z,2.00
2018-11-21T22:29:40.476Z,2.00
2018-11-21T22:32:08.658Z,2.00
2018-11-21T22:34:36.873Z,2.10
2018-11-21T22:37:05.167Z,2.10
2018-11-21T22:39:33.381Z,2.20
2018-11-21T22:42:01.561Z,2.00
2018-11-21T22:44:29.826Z,1.90
2018-11-21T22:46:58.028Z,2.00
2018-11-21T22:49:26.240Z,2.10
2018-11-21T22:51:54.414Z,1.90
2018-11-21T22:54:22.675Z,2.00
2018-11-21T22:56:50.863Z,1.90
2018-11-21T22:59:19.085Z,2.00
2018-11-21T23:01:47.338Z,1.90
2018-11-21T23:04:15.633Z,1.80
2018-11-21T23:06:43.831Z,1.80
2018-11-21T23:09:12.883Z,1.90
2018-11-21T23:11:41.341Z,1.80
2018-11-21T23:14:09.639Z,1.80
2018-11-21T23:16:37.855Z,1.80
2018-11-21T23:19:06.223Z,1.90
2018-11-21T23:21:34.444Z,1.90
2018-11-21T23:24:02.669Z,1.90
2018-11-21T23:26:30.897Z,1.90
2018-11-21T23:28:59.070Z,1.80
2018-11-21T23:31:27.288Z,1.80
2018-11-21T23:33:55.623Z,1.80
2018-11-21T23:36:23.833Z,1.90
2018-11-21T23:38:52.017Z,1.90
2018-11-21T23:41:20.195Z,1.90
2018-11-21T23:43:48.378Z,1.80
2018-11-21T23:46:16.602Z,1.70
2018-11-21T23:48:44.935Z,1.80
2018-11-21T23:51:13.154Z,1.70
2018-11-21T23:53:41.343Z,1.70
2018-11-21T23:56:09.531Z,1.70
2018-11-21T23:58:37.734Z,1.70
